Green Mountain — V7ZQ7 — position and weather

sailwx.info

Track history (hours):
 
Tides and Currents Weather Stations Pressure Air Temp Water Temp Dewpoint Dewpoint Depression Visibility Wind Speed Wind Dir Waves Ship Positions

Green Mountain

Last reported at 2017-Dec-11 07:33 UTC. Time now 2017-Dec-12 20:11 UTC.
Position N 48°58' W 005°05'.

Length 200 m; draft 9.9 m.

Type: Ship (hazmat cat A). MMSI: 538090454.

Date/timePositionNaut miles runAvg speedWind from/ knotsBaromVisibWave heightAir tempDewpointWater temp
2017-Dec-11 07:33N 48°58' W 005°05'211.4
2017-Dec-11 07:23N 48°57' W 005°07'411.5
2017-Dec-11 07:00N 48°55' W 005°13'611.3
2017-Dec-11 06:30N 48°52' W 005°21'611.2
2017-Dec-11 06:00N 48°49' W 005°28'610.9
2017-Dec-11 05:30N 48°46' W 005°35'510.8
2017-Dec-11 05:00N 48°42' W 005°39'610.7
2017-Dec-11 04:27N 48°37' W 005°44'  
2017-Dec-08 21:10N 39°16' W 010°19'214.8
2017-Dec-08 21:00N 39°14' W 010°20'714.6
2017-Dec-08 20:30N 39°07' W 010°23'21115.2
2017-Dec-08 06:39N 35°47' W 011°48'46415.5
2017-Dec-07 00:46N 28°28' W 014°47'414.6
2017-Dec-07 00:30N 28°25' W 014°49'714.6
2017-Dec-07 00:00N 28°18' W 014°51'714.8
2017-Dec-06 23:30N 28°11' W 014°54'714.7
2017-Dec-06 23:00N 28°04' W 014°56'714.6
2017-Dec-06 22:30N 27°57' W 014°59'714.5
2017-Dec-06 22:00N 27°50' W 015°02'713.9
2017-Dec-06 21:29N 27°43' W 015°05'713.8
2017-Dec-06 21:01N 27°37' W 015°08'  
Track history (hours):
 
Tides and Currents Weather Stations Pressure Air Temp Water Temp Dewpoint Dewpoint Depression Visibility Wind Speed Wind Dir Waves Ship Positions

Green Mountain

Last reported at 2017-Dec-11 07:33 UTC. Time now 2017-Dec-12 20:11 UTC.
Position N 48°58' W 005°05'.

Length 200 m; draft 9.9 m.

Type: Ship (hazmat cat A). MMSI: 538090454.

Date/timePositionNaut miles runAvg speedWind from/ knotsBaromVisibWave heightAir tempDewpointWater temp
2017-Dec-11 07:33N 48°58' W 005°05'211.4
2017-Dec-11 07:23N 48°57' W 005°07'411.5
2017-Dec-11 07:00N 48°55' W 005°13'611.3
2017-Dec-11 06:30N 48°52' W 005°21'611.2
2017-Dec-11 06:00N 48°49' W 005°28'610.9
2017-Dec-11 05:30N 48°46' W 005°35'510.8
2017-Dec-11 05:00N 48°42' W 005°39'610.7
2017-Dec-11 04:27N 48°37' W 005°44'  
2017-Dec-08 21:10N 39°16' W 010°19'214.8
2017-Dec-08 21:00N 39°14' W 010°20'714.6
2017-Dec-08 20:30N 39°07' W 010°23'21115.2
2017-Dec-08 06:39N 35°47' W 011°48'46415.5
2017-Dec-07 00:46N 28°28' W 014°47'414.6
2017-Dec-07 00:30N 28°25' W 014°49'714.6
2017-Dec-07 00:00N 28°18' W 014°51'714.8
2017-Dec-06 23:30N 28°11' W 014°54'714.7
2017-Dec-06 23:00N 28°04' W 014°56'714.6
2017-Dec-06 22:30N 27°57' W 014°59'714.5
2017-Dec-06 22:00N 27°50' W 015°02'713.9
2017-Dec-06 21:29N 27°43' W 015°05'713.8
2017-Dec-06 21:01N 27°37' W 015°08'  

Dump ship's entire track history